City of Colorado Springs Municipal Airport
KCOS : now visible

Airfield :











YOU CAN JOIN US ON...

 
LOGIN :

Register | Disclaimer

   EN    FR    IT 

 









Legend :    VFR   Marginal VFR   IFR   Intensive IFR   Very Intensive IFR
Visi :
Ceiling :
>= 8 km
>= 3000ft
5 to 8 km
1000 to 3000 ft
1500m to 5 km
500 to 1000 ft
800 to 1500m
200 to 500 ft
< 800m
< 200 ft
Symbols :   Thunderstorms  Fog  Heavy snow  Heavy precipitations  Wind > 20 kt






- Airport Elevation : 6187 ft
- IATA code : COS


KCOS - City of Colorado Springs Municipal

CURRENT METAR :
  • 190854Z 03008KT 10SM BKN170 17/06 A3014 RMK AO2 SLP105 T01720061 $

EXPIRED METARs :
  • 190754Z 06007KT 10SM BKN170 21/05 A3015 RMK AO2 SLP101 T02110050
  • 190654Z 07003KT 10SM FEW110 BKN180 22/06 A3015 RMK AO2 SLP098 T02170061 403390178

TAF KCOS
Valid from the 19 at 07:00 until the 20 at 06:00 UTC


190706Z 1907/2006 12007KT P6SM FEW080 BKN150
FM190900 01006KT P6SM SCT120 BKN200
FM191600 15008KT P6SM BKN150
FM191900 17012KT P6SM FEW090 BKN140
FM192100 15013KT P6SM VCTS SCT080CB BKN140
FM200300 04007KT P6SM FEW100 SCT150
KZDV FIR / North America



MET'MAP, your aeronautical weather chart ! - Copyright ORBIFLY December 2007 - Disclaimer

ORBIFLY MET'MAP TEAM :

Programming & Development : Alexandra Zaïnal
Concept & original design : Baudouin d'Aumeries
Assistance for programming : Marc-Olivier Méhu
Technical & hardware support : Manuel Goepfert

Contact : metmap@orbifly.com




SOURCES & CREDITS :

   NOAA       Earth
Advisory